Time;durP1;ratioP1;P1;durP2;ratioP2;P2;SDS_P1;SDS_P2;PMS_P1;PMS_P2;Temp;Humidity;BMP_temperature;BMP_pressure;BME280_temperature;BME280_humidity;BME280_pressure;Samples;Min_cycle;Max_cycle;Signal;HPM_P1;HPM_P2
2022/10/18 00:01:09;;;;;;;;;;;;;;;19.86;67.60;101767.60;2330286;74;51841;-78
2022/10/18 00:04:11;;;;;;;;;;;;;;;19.85;67.64;101768.63;2353441;75;51578;-78
2022/10/18 00:07:13;;;;;;;;;;;;;;;19.86;67.61;101775.66;2379154;73;50671;-78
2022/10/18 00:10:14;;;;;;;;;;;;;;;19.86;67.59;101775.19;2379212;75;51293;-79
2022/10/18 00:13:16;;;;;;;;;;;;;;;19.84;67.61;101777.19;2379060;74;51577;-77
2022/10/18 00:16:17;;;;;;;;;;;;;;;19.82;67.78;101778.35;2379439;74;50718;-78
2022/10/18 00:19:19;;;;;;;;;;;;;;;19.86;67.61;101774.31;2325314;75;50091;-79
2022/10/18 00:22:21;;;;;;;;;;;;;;;19.88;67.55;101775.00;2379211;75;50769;-78
2022/10/18 00:25:22;;;;;;;;;;;;;;;19.82;67.83;101782.38;2378934;75;51495;-78
2022/10/18 00:28:24;;;;;;;;;;;;;;;19.82;67.78;101779.19;2379072;73;50723;-78
2022/10/18 00:31:27;;;;;;;;;;;;;;;19.84;67.69;101777.70;2351428;74;51004;-78
2022/10/18 00:34:28;;;;;;;;;;;;;;;19.84;67.71;101786.59;2342869;75;51490;-79
2022/10/18 00:37:30;;;;;;;;;;;;;;;19.86;67.59;101792.64;2336391;75;51504;-78
2022/10/18 00:40:32;;;;;;;;;;;;;;;19.86;67.53;101793.13;2338246;75;51506;-78
2022/10/18 00:43:35;;;;;;;;;;;;;;;19.86;67.57;101798.49;2304620;76;50886;-78
2022/10/18 00:46:37;;;;;;;;;;;;;;;19.87;67.51;101798.84;2337701;76;52306;-77
2022/10/18 00:49:40;;;;;;;;;;;;;;;19.88;67.46;101796.48;2338793;76;51670;-78
2022/10/18 00:52:43;;;;;;;;;;;;;;;19.86;67.47;101789.95;2338888;75;50282;-79
2022/10/18 00:55:45;;;;;;;;;;;;;;;19.87;67.45;101793.48;2340454;76;51031;-77
2022/10/18 00:58:47;;;;;;;;;;;;;;;19.88;67.40;101796.48;2330940;75;52002;-78
2022/10/18 01:01:48;;;;;;;;;;;;;;;19.87;67.41;101803.71;2365386;75;50773;-78
2022/10/18 01:04:50;;;;;;;;;;;;;;;19.87;67.44;101792.13;2378939;74;51383;-78
2022/10/18 01:08:05;;;;;;;;;;;;;;;19.87;67.43;101794.31;2379216;73;50703;-77
2022/10/18 01:11:08;;;;;;;;;;;;;;;19.88;67.44;101796.48;2379536;75;51684;-78
2022/10/18 01:14:12;;;;;;;;;;;;;;;19.88;67.38;101800.02;2350084;75;51588;-78
2022/10/18 01:17:30;;;;;;;;;;;;;;;19.88;67.38;101809.41;2378525;73;51664;-77
2022/10/18 01:20:36;;;;;;;;;;;;;;;19.89;67.39;101812.45;2352890;74;51708;-78
2022/10/18 01:23:45;;;;;;;;;;;;;;;19.89;67.39;101814.30;2378937;74;51485;-78
2022/10/18 01:27:01;;;;;;;;;;;;;;;19.91;67.36;101808.24;2378338;73;50405;-78
2022/10/18 01:30:21;;;;;;;;;;;;;;;19.90;67.29;101800.69;2377496;74;50311;-79
2022/10/18 01:33:27;;;;;;;;;;;;;;;19.89;67.34;101798.19;2332883;76;51595;-75
2022/10/18 01:36:30;;;;;;;;;;;;;;;19.88;67.45;101793.30;2333148;76;50581;-77
2022/10/18 01:39:33;;;;;;;;;;;;;;;19.88;67.32;101788.44;2332789;75;51477;-74
2022/10/18 01:42:34;;;;;;;;;;;;;;;19.84;67.56;101783.06;2333155;76;50398;-77
2022/10/18 01:45:36;;;;;;;;;;;;;;;19.88;67.54;101785.74;2320298;76;51130;-76
2022/10/18 01:48:37;;;;;;;;;;;;;;;19.89;67.49;101790.97;2333111;75;50429;-77
2022/10/18 01:51:39;;;;;;;;;;;;;;;19.89;67.41;101794.16;2333278;76;50394;-77
2022/10/18 01:54:42;;;;;;;;;;;;;;;19.91;67.37;101792.13;2333046;76;50405;-76
2022/10/18 01:58:00;;;;;;;;;;;;;;;19.90;67.33;101800.69;2320713;75;52593;-76
2022/10/18 02:01:06;;;;;;;;;;;;;;;19.90;67.33;101794.48;2351668;75;52597;-76
2022/10/18 02:04:10;;;;;;;;;;;;;;;19.90;67.32;101783.23;2378875;74;50792;-77
2022/10/18 02:07:13;;;;;;;;;;;;;;;19.90;67.28;101787.27;2382431;73;50816;-76
2022/10/18 02:10:22;;;;;;;;;;;;;;;19.90;67.29;101791.80;2354188;75;52501;-76
2022/10/18 02:13:24;;;;;;;;;;;;;;;19.90;67.58;101797.17;2379859;74;50696;-76
2022/10/18 02:16:28;;;;;;;;;;;;;;;19.89;67.60;101789.63;2380671;75;50486;-76
2022/10/18 02:19:40;;;;;;;;;;;;;;;19.89;67.63;101795.50;2382527;73;52484;-76
2022/10/18 02:22:41;;;;;;;;;;;;;;;19.89;67.60;101795.50;2354898;75;51747;-76
2022/10/18 02:25:43;;;;;;;;;;;;;;;19.88;67.60;101793.80;2379488;75;51626;-76
2022/10/18 02:28:44;;;;;;;;;;;;;;;19.88;67.60;101793.80;2379604;73;51541;-77
2022/10/18 02:31:47;;;;;;;;;;;;;;;19.89;67.53;101800.88;2352073;75;52314;-76
2022/10/18 02:34:58;;;;;;;;;;;;;;;19.88;67.67;101795.14;2381167;75;50791;-76
2022/10/18 02:38:00;;;;;;;;;;;;;;;19.90;67.58;101798.52;2379447;73;51512;-77
2022/10/18 02:41:02;;;;;;;;;;;;;;;19.89;67.51;101800.37;2379284;74;51481;-77
2022/10/18 02:44:03;;;;;;;;;;;;;;;19.90;67.49;101796.66;2379066;75;51532;-76
2022/10/18 02:47:05;;;;;;;;;;;;;;;19.91;67.40;101809.59;2325313;73;51866;-76
2022/10/18 02:50:07;;;;;;;;;;;;;;;19.91;67.46;101817.64;2379291;75;50460;-77
2022/10/18 02:53:08;;;;;;;;;;;;;;;19.92;67.44;101813.97;2379160;74;50334;-77
2022/10/18 02:56:10;;;;;;;;;;;;;;;19.92;67.39;101813.97;2379042;74;50365;-77
2022/10/18 02:59:12;;;;;;;;;;;;;;;19.93;67.37;101806.23;2353782;74;49625;-77
2022/10/18 03:02:13;;;;;;;;;;;;;;;19.93;67.35;101815.13;2353765;74;50394;-77
2022/10/18 03:05:15;;;;;;;;;;;;;;;19.91;67.48;101820.33;2379064;75;50416;-77
2022/10/18 03:08:16;;;;;;;;;;;;;;;19.90;67.44;101818.66;2379271;73;50338;-77
2022/10/18 03:11:18;;;;;;;;;;;;;;;19.91;67.38;101814.95;2353668;75;49581;-77
2022/10/18 03:14:20;;;;;;;;;;;;;;;19.92;67.38;101823.37;2379093;74;50427;-76
2022/10/18 03:17:21;;;;;;;;;;;;;;;19.93;67.34;101825.05;2351857;73;50717;-76
2022/10/18 03:20:23;;;;;;;;;;;;;;;19.93;67.29;101836.63;2379208;75;51601;-77
2022/10/18 03:23:24;;;;;;;;;;;;;;;19.95;67.38;101853.94;2353241;75;50136;-78
2022/10/18 03:26:26;;;;;;;;;;;;;;;19.93;67.40;101852.74;2379069;75;50641;-77
2022/10/18 03:29:27;;;;;;;;;;;;;;;19.93;67.41;101846.53;2379240;73;51569;-76
2022/10/18 03:32:29;;;;;;;;;;;;;;;19.93;67.33;101837.13;2356121;75;51520;-77
2022/10/18 03:35:31;;;;;;;;;;;;;;;19.93;67.32;101825.05;2312882;76;50986;-77
2022/10/18 03:38:32;;;;;;;;;;;;;;;19.94;67.25;101826.75;2338021;75;50802;-77
2022/10/18 03:41:34;;;;;;;;;;;;;;;19.95;67.22;101819.84;2311727;76;50724;-76
2022/10/18 03:44:35;;;;;;;;;;;;;;;19.96;67.21;101824.71;2337806;76;50382;-76
2022/10/18 03:47:37;;;;;;;;;;;;;;;19.95;67.23;101812.30;2311569;75;50723;-77
2022/10/18 03:50:38;;;;;;;;;;;;;;;19.94;67.30;101820.86;2337853;76;51558;-77
2022/10/18 03:53:40;;;;;;;;;;;;;;;19.95;67.27;101831.10;2337773;76;51522;-77
2022/10/18 03:56:42;;;;;;;;;;;;;;;19.95;67.36;101839.16;2311557;75;51580;-77
2022/10/18 03:59:43;;;;;;;;;;;;;;;19.95;67.44;101841.84;2312878;76;51078;-76
2022/10/18 04:02:45;;;;;;;;;;;;;;;19.95;67.40;101840.50;2378029;75;50435;-76
2022/10/18 04:05:46;;;;;;;;;;;;;;;19.94;67.39;101834.80;2379042;74;50281;-77
2022/10/18 04:08:48;;;;;;;;;;;;;;;19.95;67.32;101829.76;2379130;73;50630;-76
2022/10/18 04:11:50;;;;;;;;;;;;;;;19.96;67.24;101832.77;2325612;75;49611;-76
2022/10/18 04:14:51;;;;;;;;;;;;;;;19.95;67.25;101840.50;2351990;75;51531;-77
2022/10/18 04:17:53;;;;;;;;;;;;;;;19.96;67.25;101843.52;2379112;73;51526;-76
2022/10/18 04:20:55;;;;;;;;;;;;;;;19.97;67.24;101835.81;2379056;75;50369;-77
2022/10/18 04:23:56;;;;;;;;;;;;;;;19.98;67.21;101832.11;2353018;75;52582;-76
2022/10/18 04:26:58;;;;;;;;;;;;;;;19.97;67.15;101833.13;2352008;73;50524;-76
2022/10/18 04:30:00;;;;;;;;;;;;;;;19.97;67.17;101833.13;2351114;75;50139;-76
2022/10/18 04:33:01;;;;;;;;;;;;;;;19.98;67.15;101836.14;2325056;75;50184;-76
2022/10/18 04:36:03;;;;;;;;;;;;;;;19.98;67.16;101838.83;2353543;75;50172;-76
2022/10/18 04:39:04;;;;;;;;;;;;;;;19.98;67.15;101835.63;2327226;75;50984;-76
2022/10/18 04:42:06;;;;;;;;;;;;;;;20.00;67.05;101838.17;2353879;75;50637;-76
2022/10/18 04:45:08;;;;;;;;;;;;;;;20.01;67.06;101831.78;2379028;75;50635;-77
2022/10/18 04:48:09;;;;;;;;;;;;;;;19.98;67.04;101834.29;2327269;75;50087;-76
2022/10/18 04:51:11;;;;;;;;;;;;;;;19.99;67.04;101844.56;2353523;75;50509;-75
2022/10/18 04:54:12;;;;;;;;;;;;;;;19.97;67.35;101836.65;2378854;75;50441;-75
2022/10/18 04:57:14;;;;;;;;;;;;;;;19.95;67.62;101826.56;2379032;75;50410;-75
2022/10/18 05:00:16;;;;;;;;;;;;;;;19.96;67.36;101826.05;2325158;75;50071;-77
2022/10/18 05:03:17;;;;;;;;;;;;;;;19.98;67.32;101834.80;2369044;75;50416;-78
2022/10/18 05:06:19;;;;;;;;;;;;;;;19.97;67.62;101839.84;2364314;75;50714;-76
2022/10/18 05:09:23;;;;;;;;;;;;;;;19.97;67.53;101837.16;2364354;75;50362;-75
2022/10/18 05:12:24;;;;;;;;;;;;;;;19.97;67.74;101833.13;2351920;74;22523;-76
2022/10/18 05:15:25;;;;;;;;;;;;;;;19.99;68.01;101828.44;2371995;74;50615;-76
2022/10/18 05:18:27;;;;;;;;;;;;;;;19.96;68.16;101813.97;2398846;74;50265;-75
2022/10/18 05:21:29;;;;;;;;;;;;;;;19.96;68.21;101812.14;2399634;74;50409;-78
2022/10/18 05:24:30;;;;;;;;;;;;;;;19.96;68.16;101821.55;2399508;74;50348;-78
2022/10/18 05:27:32;;;;;;;;;;;;;;;19.99;68.26;101819.87;2351468;74;51241;-79
2022/10/18 05:30:33;;;;;;;;;;;;;;;20.01;67.97;101821.03;2374146;74;50615;-79
2022/10/18 05:33:35;;;;;;;;;;;;;;;20.03;67.96;101832.47;2354318;74;51496;-77
2022/10/18 05:36:36;;;;;;;;;;;;;;;20.02;68.00;101820.05;2333346;76;51508;-77
2022/10/18 05:39:38;;;;;;;;;;;;;;;20.03;67.93;101822.22;2333188;76;51538;-77
2022/10/18 05:42:40;;;;;;;;;;;;;;;20.03;67.64;101813.66;2333285;76;50663;-78
2022/10/18 05:45:43;;;;;;;;;;;;;;;20.03;68.00;101811.48;2333117;75;50390;-76
2022/10/18 05:48:46;;;;;;;;;;;;;;;20.02;68.25;101818.70;2308057;76;51380;-78
2022/10/18 05:51:48;;;;;;;;;;;;;;;19.98;68.33;101822.70;2332880;76;50526;-76
2022/10/18 05:54:49;;;;;;;;;;;;;;;19.98;68.71;101821.36;2333148;75;52432;-76
2022/10/18 05:57:51;;;;;;;;;;;;;;;19.97;69.16;101835.30;2333370;76;50378;-76
2022/10/18 06:00:53;;;;;;;;;;;;;;;19.97;69.02;101829.94;2323035;75;50126;-76
2022/10/18 06:03:54;;;;;;;;;;;;;;;20.00;68.93;101831.45;2363536;74;50730;-77
2022/10/18 06:06:56;;;;;;;;;;;;;;;19.99;68.75;101840.53;2379120;75;50721;-77
2022/10/18 06:09:57;;;;;;;;;;;;;;;20.00;68.80;101839.52;2379329;74;51564;-76
2022/10/18 06:12:59;;;;;;;;;;;;;;;20.00;68.94;101842.20;2353306;74;52861;-77
2022/10/18 06:16:00;;;;;;;;;;;;;;;20.01;68.66;101825.93;2352119;74;51811;-76
2022/10/18 06:19:02;;;;;;;;;;;;;;;19.98;68.36;101815.99;2352228;75;50004;-76
2022/10/18 06:22:04;;;;;;;;;;;;;;;19.99;68.37;101816.35;2379544;75;50394;-77
2022/10/18 06:25:05;;;;;;;;;;;;;;;19.98;68.22;101806.08;2353416;75;51272;-77
2022/10/18 06:28:07;;;;;;;;;;;;;;;19.98;68.19;101811.45;2352399;74;51500;-76
2022/10/18 06:31:09;;;;;;;;;;;;;;;19.98;68.50;101811.45;2352159;74;51502;-77
2022/10/18 06:34:11;;;;;;;;;;;;;;;19.98;68.69;101817.34;2378964;75;50143;-76
2022/10/18 06:37:13;;;;;;;;;;;;;;;20.01;68.73;101804.91;2379365;73;50332;-77
2022/10/18 06:40:14;;;;;;;;;;;;;;;20.03;68.61;101808.79;2352232;75;50714;-76
2022/10/18 06:43:16;;;;;;;;;;;;;;;20.02;69.52;101803.92;2379168;74;51576;-77
2022/10/18 06:46:17;;;;;;;;;;;;;;;20.03;69.16;101805.59;2347167;75;50602;-77
2022/10/18 06:49:19;;;;;;;;;;;;;;;20.02;69.12;101805.27;2340202;75;51029;-78
2022/10/18 06:52:24;;;;;;;;;;;;;;;20.02;69.04;101817.36;2382831;74;51450;-77
2022/10/18 06:55:24;;;;;;;;;;;;;;;20.03;69.04;101820.37;2355799;74;22330;-78
2022/10/18 06:58:25;;;;;;;;;;;;;;;20.03;68.97;101827.09;2371783;75;50425;-77
2022/10/18 07:01:29;;;;;;;;;;;;;;;20.01;69.07;101817.88;2349552;74;50267;-77
2022/10/18 07:04:31;;;;;;;;;;;;;;;20.03;68.72;101817.69;2354210;75;50415;-76
2022/10/18 07:07:33;;;;;;;;;;;;;;;20.06;68.46;101825.41;2379340;73;50675;-77
2022/10/18 07:10:34;;;;;;;;;;;;;;;20.04;68.52;101819.39;2379277;75;50726;-75
2022/10/18 07:13:36;;;;;;;;;;;;;;;20.05;68.42;101833.66;2353508;75;53269;-77
2022/10/18 07:16:37;;;;;;;;;;;;;;;20.00;68.70;101832.28;2352359;75;51589;-77
2022/10/18 07:19:39;;;;;;;;;;;;;;;19.99;68.74;101848.08;2394465;73;51460;-74
2022/10/18 07:22:40;;;;;;;;;;;;;;;19.99;68.77;101855.30;2394251;74;50422;-77
2022/10/18 07:25:42;;;;;;;;;;;;;;;19.97;68.83;101862.17;2369648;74;50228;-78
2022/10/18 07:28:44;;;;;;;;;;;;;;;19.99;68.84;101872.77;2287963;76;51299;-76
2022/10/18 07:31:46;;;;;;;;;;;;;;;20.00;68.67;101867.72;2312294;76;50109;-75
2022/10/18 07:34:47;;;;;;;;;;;;;;;20.00;68.63;101875.27;2376402;75;50414;-76
2022/10/18 07:37:49;;;;;;;;;;;;;;;20.01;68.58;101880.14;2379162;75;50326;-77
2022/10/18 07:40:52;;;;;;;;;;;;;;;20.01;68.63;101884.17;2353559;75;51816;-76
2022/10/18 07:43:53;;;;;;;;;;;;;;;20.00;68.61;101887.36;2378236;74;50793;-76
2022/10/18 07:46:55;;;;;;;;;;;;;;;20.01;68.59;101885.52;2379219;75;51491;-76
2022/10/18 07:49:57;;;;;;;;;;;;;;;20.00;68.59;101895.93;2378960;75;51470;-74
2022/10/18 07:52:58;;;;;;;;;;;;;;;20.01;68.48;101894.44;2327744;75;52566;-75
2022/10/18 07:56:00;;;;;;;;;;;;;;;20.03;68.41;101888.88;2356711;74;50784;-76
2022/10/18 07:59:02;;;;;;;;;;;;;;;20.05;68.47;101881.51;2391397;74;50624;-75
2022/10/18 08:02:03;;;;;;;;;;;;;;;20.07;68.18;101880.02;2381886;74;51438;-75
2022/10/18 08:05:05;;;;;;;;;;;;;;;20.07;68.04;101886.22;2352293;75;51000;-76
2022/10/18 08:08:07;;;;;;;;;;;;;;;20.06;68.05;101876.97;2378490;73;50398;-75
2022/10/18 08:11:13;;;;;;;;;;;;;;;20.10;68.02;101879.17;2340830;75;51534;-76
2022/10/18 08:14:15;;;;;;;;;;;;;;;20.08;67.96;101881.17;2335020;76;49994;-77
2022/10/18 08:17:16;;;;;;;;;;;;;;;20.13;67.85;101873.98;2278717;76;50081;-76
2022/10/18 08:20:18;;;;;;;;;;;;;;;20.12;67.83;101874.48;2311440;76;50803;-76
2022/10/18 08:23:20;;;;;;;;;;;;;;;20.14;67.82;101879.20;2313987;75;51388;-76
2022/10/18 08:26:21;;;;;;;;;;;;;;;20.18;67.68;101875.67;2355229;75;50716;-75
2022/10/18 08:29:23;;;;;;;;;;;;;;;20.19;67.56;101874.17;2355100;74;50377;-76
2022/10/18 08:32:26;;;;;;;;;;;;;;;20.15;67.76;101867.44;2345852;74;51352;-76
2022/10/18 08:35:27;;;;;;;;;;;;;;;20.16;67.68;101867.76;2379698;74;50756;-76
2022/10/18 08:38:30;;;;;;;;;;;;;;;20.18;67.62;101871.64;2379809;73;51406;-77
2022/10/18 08:41:36;;;;;;;;;;;;;;;20.18;67.63;101876.50;2328915;74;52467;-75
2022/10/18 08:44:37;;;;;;;;;;;;;;;;;;2379658;73;50646;-76
2022/10/18 08:47:39;;;;;;;;;;;;;;;20.20;67.42;101872.33;2372938;73;51529;-76
2022/10/18 08:50:41;;;;;;;;;;;;;;;20.18;67.40;101879.19;2360508;75;50738;-76
2022/10/18 08:53:50;;;;;;;;;;;;;;;20.18;67.40;101875.16;2360551;75;51529;-76
2022/10/18 08:57:01;;;;;;;;;;;;;;;20.16;67.40;101867.76;2339971;75;51907;-75
2022/10/18 09:00:07;;;;;;;;;;;;;;;20.18;67.40;101864.41;2358212;75;50494;-76
2022/10/18 09:03:13;;;;;;;;;;;;;;;20.19;67.35;101867.45;2331446;76;50403;-76
2022/10/18 09:06:17;;;;;;;;;;;;;;;20.20;67.30;101864.27;2352113;74;50465;-76
2022/10/18 09:09:26;;;;;;;;;;;;;;;20.18;67.25;101866.27;2369268;74;49635;-74
2022/10/18 09:12:38;;;;;;;;;;;;;;;20.14;67.36;101869.80;2379869;74;51482;-76
2022/10/18 09:15:51;;;;;;;;;;;;;;;20.15;67.47;101874.16;2379043;74;51643;-76
2022/10/18 09:19:09;;;;;;;;;;;;;;;20.16;67.32;101874.48;2379056;74;51525;-75
2022/10/18 09:22:14;;;;;;;;;;;;;;;20.14;67.32;101873.83;2369588;74;52677;-75
2022/10/18 09:25:23;;;;;;;;;;;;;;;20.15;67.33;101880.03;2379800;74;51550;-75
2022/10/18 09:28:29;;;;;;;;;;;;;;;20.12;67.38;101881.71;2380026;74;50413;-76
2022/10/18 09:31:47;;;;;;;;;;;;;;;20.10;67.50;101879.69;2366037;74;51502;-75
2022/10/18 09:34:51;;;;;;;;;;;;;;;20.11;67.49;101881.36;2379013;74;49557;-74
2022/10/18 09:37:53;;;;;;;;;;;;;;;20.12;67.48;101873.65;2358870;75;50320;-73
2022/10/18 09:40:56;;;;;;;;;;;;;;;20.10;67.52;101872.97;2358729;75;50408;-74
2022/10/18 09:44:02;;;;;;;;;;;;;;;20.07;67.61;101869.27;2358643;75;51522;-74
2022/10/18 09:47:20;;;;;;;;;;;;;;;20.05;67.68;101867.23;2358822;74;51430;-73
2022/10/18 09:50:23;;;;;;;;;;;;;;;20.03;67.76;101871.42;2358805;75;51516;-73
2022/10/18 09:53:39;;;;;;;;;;;;;;;20.05;67.80;101876.64;2358905;75;51529;-74
2022/10/18 09:56:48;;;;;;;;;;;;;;;20.04;67.78;101875.81;2358543;75;50445;-74
2022/10/18 09:59:50;;;;;;;;;;;;;;;20.03;67.83;101867.39;2335817;75;51012;-73
2022/10/18 10:02:51;;;;;;;;;;;;;;;20.03;67.72;101873.27;2368623;75;50439;-73
2022/10/18 10:06:03;;;;;;;;;;;;;;;20.03;67.71;101867.90;2357787;75;50342;-73
2022/10/18 10:09:05;;;;;;;;;;;;;;;20.05;67.70;101877.98;2368335;75;51558;-74
2022/10/18 10:12:26;;;;;;;;;;;;;;;20.04;67.67;101881.18;2331039;75;49572;-73
2022/10/18 10:15:27;;;;;;;;;;;;;;;20.05;67.64;101874.79;2368252;74;50344;-74
2022/10/18 10:18:30;;;;;;;;;;;;;;;20.06;67.58;101871.09;2368279;75;50633;-75
2022/10/18 10:21:32;;;;;;;;;;;;;;;20.00;67.71;101882.50;2368423;75;51574;-75
2022/10/18 10:24:41;;;;;;;;;;;;;;;19.99;67.74;101874.95;2358097;75;49567;-76
2022/10/18 10:27:43;;;;;;;;;;;;;;;19.99;67.77;101874.95;2368330;75;54158;-75
2022/10/18 10:30:45;;;;;;;;;;;;;;;20.03;67.77;101878.64;2371121;75;50769;-75
2022/10/18 10:33:46;;;;;;;;;;;;;;;20.01;67.79;101876.11;2324288;75;51398;-77
2022/10/18 10:36:52;;;;;;;;;;;;;;;20.00;67.85;101863.69;2369356;74;49601;-75
2022/10/18 10:40:07;;;;;;;;;;;;;;;20.00;67.83;101861.00;2378816;74;51644;-74
2022/10/18 10:43:16;;;;;;;;;;;;;;;19.98;67.86;101857.13;2298263;77;51488;-75
2022/10/18 10:46:18;;;;;;;;;;;;;;;20.02;67.71;101859.00;2338459;76;51538;-75
2022/10/18 10:49:30;;;;;;;;;;;;;;;20.04;67.62;101855.66;2340104;75;51007;-74
2022/10/18 10:52:32;;;;;;;;;;;;;;;20.03;67.74;101841.03;2338598;76;51486;-73
2022/10/18 10:55:34;;;;;;;;;;;;;;;20.00;67.81;101843.03;2338343;76;50858;-75
2022/10/18 10:58:36;;;;;;;;;;;;;;;20.00;67.80;101844.89;2338376;76;51281;-76
2022/10/18 11:01:38;;;;;;;;;;;;;;;20.01;67.80;101833.13;2353314;75;49584;-76
2022/10/18 11:04:40;;;;;;;;;;;;;;;20.00;67.81;101820.70;2358204;75;50053;-74
2022/10/18 11:07:43;;;;;;;;;;;;;;;20.01;67.78;101812.97;2335719;75;51438;-75
2022/10/18 11:10:55;;;;;;;;;;;;;;;20.01;67.77;101817.88;2338240;76;50620;-75
2022/10/18 11:13:58;;;;;;;;;;;;;;;20.03;67.79;101831.12;2355740;74;49671;-75
2022/10/18 11:17:13;;;;;;;;;;;;;;;20.04;67.78;101823.89;2379597;74;51483;-74
2022/10/18 11:20:22;;;;;;;;;;;;;;;20.06;67.67;101821.38;2379826;74;50747;-75
2022/10/18 11:23:33;;;;;;;;;;;;;;;20.06;67.64;101822.72;2379619;74;50189;-73
2022/10/18 11:26:46;;;;;;;;;;;;;;;20.06;67.71;101824.58;2328603;74;51883;-74
2022/10/18 11:29:52;;;;;;;;;;;;;;;20.05;67.73;101820.22;2379545;74;51695;-74
2022/10/18 11:33:01;;;;;;;;;;;;;;;20.11;67.47;101830.30;2310885;76;50427;-74
2022/10/18 11:36:05;;;;;;;;;;;;;;;20.10;67.37;101827.29;2359993;75;51573;-75
2022/10/18 11:39:08;;;;;;;;;;;;;;;20.09;67.37;101823.77;2336559;75;50249;-74
2022/10/18 11:42:30;;;;;;;;;;;;;;;20.10;67.30;101819.22;2332468;74;50767;-74
2022/10/18 11:45:39;;;;;;;;;;;;;;;20.07;67.29;101819.56;2379510;74;51682;-73
2022/10/18 11:48:43;;;;;;;;;;;;;;;20.07;67.29;101820.39;2335468;75;51861;-74
2022/10/18 11:51:46;;;;;;;;;;;;;;;20.07;67.25;101818.22;2335427;75;50095;-73
2022/10/18 11:54:49;;;;;;;;;;;;;;;20.05;67.27;101814.84;2355677;75;50763;-74
2022/10/18 11:57:58;;;;;;;;;;;;;;;20.04;67.27;101807.30;2355892;75;50798;-74
2022/10/18 12:01:05;;;;;;;;;;;;;;;20.05;67.24;101816.19;2352138;75;52404;-74
2022/10/18 12:04:19;;;;;;;;;;;;;;;20.05;67.20;101814.34;2367747;74;51321;-75
2022/10/18 12:07:21;;;;;;;;;;;;;;;20.06;67.16;101800.39;2379759;74;50783;-74
2022/10/18 12:10:22;;;;;;;;;;;;;;;20.05;67.15;101790.66;2368396;75;51504;-75
2022/10/18 12:13:26;;;;;;;;;;;;;;;20.05;67.14;101783.44;2360798;75;51547;-74
2022/10/18 12:16:28;;;;;;;;;;;;;;;20.04;67.12;101801.92;2354913;74;52480;-74
2022/10/18 12:19:31;;;;;;;;;;;;;;;20.04;67.19;101803.27;2379670;74;50634;-74
2022/10/18 12:22:37;;;;;;;;;;;;;;;20.01;67.59;101795.03;2379988;74;51474;-77
2022/10/18 12:25:40;;;;;;;;;;;;;;;20.06;67.28;101793.17;2379689;74;51517;-77
2022/10/18 12:28:50;;;;;;;;;;;;;;;20.09;67.20;101792.87;2311412;76;51853;-76
2022/10/18 12:31:55;;;;;;;;;;;;;;;20.07;67.18;101802.93;2322244;75;51474;-73
2022/10/18 12:35:04;;;;;;;;;;;;;;;20.07;67.35;101796.72;2313089;77;50396;-75
2022/10/18 12:38:10;;;;;;;;;;;;;;;20.06;68.50;101795.86;2290008;77;50653;-75
2022/10/18 12:41:16;;;;;;;;;;;;;;;20.08;68.71;101791.67;2307004;76;52699;-76
2022/10/18 12:44:19;;;;;;;;;;;;;;;20.08;68.24;101787.64;2357764;75;50767;-75
2022/10/18 12:47:21;;;;;;;;;;;;;;;20.08;68.22;101783.10;2339451;75;50355;-76
2022/10/18 12:50:28;;;;;;;;;;;;;;;20.08;68.18;101779.08;2357840;75;50688;-76
2022/10/18 12:53:30;;;;;;;;;;;;;;;20.08;68.12;101778.23;2356485;74;52496;-76
2022/10/18 12:56:33;;;;;;;;;;;;;;;20.07;68.26;101780.60;2380036;74;51520;-76
2022/10/18 12:59:36;;;;;;;;;;;;;;;20.05;68.37;101771.35;2379857;73;51461;-75
2022/10/18 13:02:38;;;;;;;;;;;;;;;20.07;68.39;101780.09;2365222;74;51396;-76
2022/10/18 13:05:50;;;;;;;;;;;;;;;20.06;68.47;101774.88;2352917;75;50134;-76
2022/10/18 13:09:06;;;;;;;;;;;;;;;20.06;68.51;101782.42;2379210;73;50322;-76
2022/10/18 13:12:12;;;;;;;;;;;;;;;20.06;68.47;101778.91;2314085;74;51564;-76
2022/10/18 13:15:32;;;;;;;;;;;;;;;20.06;68.57;101771.67;2378936;74;50509;-75
2022/10/18 13:18:35;;;;;;;;;;;;;;;20.07;68.49;101773.89;2353518;74;52546;-75
2022/10/18 13:21:47;;;;;;;;;;;;;;;20.07;68.53;101779.26;2317733;74;51673;-76
2022/10/18 13:25:00;;;;;;;;;;;;;;;20.06;68.61;101777.05;2379013;75;50660;-76
2022/10/18 13:28:05;;;;;;;;;;;;;;;20.05;68.73;101780.75;2379133;73;22335;-76
2022/10/18 13:31:11;;;;;;;;;;;;;;;20.05;68.75;101781.27;2353856;74;51463;-76
2022/10/18 13:34:23;;;;;;;;;;;;;;;20.05;68.72;101774.55;2378298;74;51675;-77
2022/10/18 13:37:24;;;;;;;;;;;;;;;20.05;68.75;101780.75;2379020;74;51618;-76
2022/10/18 13:40:26;;;;;;;;;;;;;;;20.06;68.81;101783.77;2379143;74;50651;-76
2022/10/18 13:43:46;;;;;;;;;;;;;;;20.05;68.86;101780.75;2353390;75;49823;-74
2022/10/18 13:46:50;;;;;;;;;;;;;;;20.06;68.80;101771.67;2379066;75;50416;-76
2022/10/18 13:49:59;;;;;;;;;;;;;;;20.06;68.82;101778.39;2379193;75;50679;-76
2022/10/18 13:53:02;;;;;;;;;;;;;;;20.06;68.88;101773.53;2378991;75;51414;-76
2022/10/18 13:56:11;;;;;;;;;;;;;;;20.07;68.94;101775.23;2353196;75;52478;-76
2022/10/18 13:59:15;;;;;;;;;;;;;;;20.08;68.89;101775.05;2377978;74;51502;-75
2022/10/18 14:02:34;;;;;;;;;;;;;;;20.08;68.87;101779.08;2360036;75;51603;-77
2022/10/18 14:05:38;;;;;;;;;;;;;;;20.05;68.94;101778.06;2364243;75;50334;-76
2022/10/18 14:08:47;;;;;;;;;;;;;;;20.07;68.98;101776.57;2341657;75;51127;-77
2022/10/18 14:11:52;;;;;;;;;;;;;;;20.06;69.02;101788.30;2363059;74;50476;-76
2022/10/18 14:15:01;;;;;;;;;;;;;;;20.06;69.00;101782.42;2364419;75;50785;-76
2022/10/18 14:18:04;;;;;;;;;;;;;;;20.08;68.97;101797.88;2364376;74;50460;-76
2022/10/18 14:21:10;;;;;;;;;;;;;;;20.08;69.00;101789.83;2341017;75;51331;-76
2022/10/18 14:24:16;;;;;;;;;;;;;;;20.08;69.20;101809.14;2362947;75;51671;-77
2022/10/18 14:27:19;;;;;;;;;;;;;;;20.08;69.47;101808.62;2364566;75;51576;-77
2022/10/18 14:30:21;;;;;;;;;;;;;;;20.12;69.78;101811.84;2377272;73;50765;-76
2022/10/18 14:33:33;;;;;;;;;;;;;;;20.21;70.26;101813.02;2329963;75;51015;-78
2022/10/18 14:36:41;;;;;;;;;;;;;;;20.23;70.22;101811.01;2356667;74;51595;-78
2022/10/18 14:39:42;;;;;;;;;;;;;;;20.25;70.33;101810.86;2337850;76;50419;-76
2022/10/18 14:42:45;;;;;;;;;;;;;;;20.27;70.34;101816.91;2337889;76;50363;-75
2022/10/18 14:45:47;;;;;;;;;;;;;;;20.28;70.33;101819.09;2325210;76;49866;-76
2022/10/18 14:48:58;;;;;;;;;;;;;;;20.29;70.28;101822.10;2346076;74;50730;-76
2022/10/18 14:52:00;;;;;;;;;;;;;;;20.28;70.21;101811.86;2379147;75;50409;-77
2022/10/18 14:55:02;;;;;;;;;;;;;;;20.31;70.16;101816.91;2379055;75;50238;-76
2022/10/18 14:58:03;;;;;;;;;;;;;;;20.33;70.11;101816.23;2353590;74;49606;-74
2022/10/18 15:01:05;;;;;;;;;;;;;;;20.34;69.96;101813.88;2351975;75;50737;-76
2022/10/18 15:04:08;;;;;;;;;;;;;;;20.35;70.03;101810.71;2378982;75;50398;-76
2022/10/18 15:07:14;;;;;;;;;;;;;;;20.36;70.13;101809.69;2379011;73;50299;-74
2022/10/18 15:10:16;;;;;;;;;;;;;;;20.36;69.77;101807.00;2353344;75;51764;-75
2022/10/18 15:13:18;;;;;;;;;;;;;;;20.36;69.68;101808.34;2378929;75;51461;-77
2022/10/18 15:16:19;;;;;;;;;;;;;;;20.34;69.71;101800.95;2379039;75;50354;-76
2022/10/18 15:19:23;;;;;;;;;;;;;;;20.35;69.68;101812.05;2379007;73;51590;-75
2022/10/18 15:22:28;;;;;;;;;;;;;;;20.34;69.56;101801.78;2353590;75;52267;-77
2022/10/18 15:25:34;;;;;;;;;;;;;;;20.34;69.52;101802.29;2379008;75;50459;-76
2022/10/18 15:28:48;;;;;;;;;;;;;;;20.34;69.61;101807.66;2378439;73;22312;-76
2022/10/18 15:31:43;;;;;;;;;;;;;;;20.33;69.70;101814.06;2349351;74;23422;-77
2022/10/18 15:34:45;;;;;;;;;;;;;;;20.33;69.79;101808.69;2353703;74;50933;-78
2022/10/18 15:37:46;;;;;;;;;;;;;;;20.33;69.81;101809.52;2391403;74;50295;-77
2022/10/18 15:40:48;;;;;;;;;;;;;;;20.30;70.02;101803.65;2391554;73;51516;-76
2022/10/18 15:43:50;;;;;;;;;;;;;;;20.29;70.12;101806.81;2391145;74;50407;-76
2022/10/18 15:46:53;;;;;;;;;;;;;;;20.32;69.94;101811.88;2337719;75;50764;-77